Terminal Aerodrome Forecast
Issued by NWS Boston, MA

Home | Current Version | Previous Version | Text Only | Print | Product List | Glossary On
Versions: 1 2 3 4 5 6 7 8 9 10 11 12 13 14 15 16 17 18 19 20 21 22 23 24
000
FTUS41 KBOX 212343
TAFPVD
TAF
KPVD 212343Z 2200/2224 24012KT P6SM FEW015 BKN250
     FM220100 32012G28KT P6SM BKN040
     FM220300 34012KT P6SM OVC050
     FM221100 02008KT P6SM OVC070
     FM221600 02009KT P6SM -RA OVC070
     FM222100 03007KT 5SM -FZRAPL OVC015
     FM222300 03006KT P6SM OVC015=

USA.gov is the U.S. government's official web portal to all federal, state and local government web resources and services.